sensor_id;sensor_type;location;lat;lon;timestamp;P1;durP1;ratioP1;P2;durP2;ratioP2
5225;SDS011;2632;51.666;7.146;2023-05-07T00:00:25;18.40;;;12.10;;
5225;SDS011;2632;51.666;7.146;2023-05-07T00:02:51;21.70;;;12.90;;
5225;SDS011;2632;51.666;7.146;2023-05-07T00:05:19;18.67;;;13.53;;
5225;SDS011;2632;51.666;7.146;2023-05-07T00:07:46;18.87;;;12.80;;
5225;SDS011;2632;51.666;7.146;2023-05-07T00:10:13;19.93;;;12.30;;
5225;SDS011;2632;51.666;7.146;2023-05-07T00:12:40;18.80;;;13.23;;
5225;SDS011;2632;51.666;7.146;2023-05-07T00:15:06;20.57;;;12.57;;
5225;SDS011;2632;51.666;7.146;2023-05-07T00:17:34;20.77;;;12.33;;
5225;SDS011;2632;51.666;7.146;2023-05-07T00:20:01;18.10;;;12.43;;
5225;SDS011;2632;51.666;7.146;2023-05-07T00:22:29;19.37;;;13.30;;
5225;SDS011;2632;51.666;7.146;2023-05-07T00:24:56;20.20;;;13.47;;
5225;SDS011;2632;51.666;7.146;2023-05-07T00:27:23;20.37;;;12.93;;
5225;SDS011;2632;51.666;7.146;2023-05-07T00:29:49;19.57;;;13.37;;
5225;SDS011;2632;51.666;7.146;2023-05-07T00:32:16;19.70;;;13.37;;
5225;SDS011;2632;51.666;7.146;2023-05-07T00:34:43;20.77;;;13.90;;
5225;SDS011;2632;51.666;7.146;2023-05-07T00:37:09;18.90;;;13.50;;
5225;SDS011;2632;51.666;7.146;2023-05-07T00:39:37;19.60;;;14.40;;
5225;SDS011;2632;51.666;7.146;2023-05-07T00:42:04;23.23;;;13.50;;
5225;SDS011;2632;51.666;7.146;2023-05-07T00:44:31;19.03;;;12.53;;
5225;SDS011;2632;51.666;7.146;2023-05-07T00:46:57;23.73;;;13.17;;
5225;SDS011;2632;51.666;7.146;2023-05-07T00:49:33;18.20;;;13.00;;
5225;SDS011;2632;51.666;7.146;2023-05-07T00:52:07;19.47;;;14.00;;
5225;SDS011;2632;51.666;7.146;2023-05-07T00:54:37;20.13;;;12.50;;
5225;SDS011;2632;51.666;7.146;2023-05-07T00:57:04;19.70;;;13.20;;
5225;SDS011;2632;51.666;7.146;2023-05-07T00:59:32;19.23;;;12.50;;
5225;SDS011;2632;51.666;7.146;2023-05-07T01:01:59;21.43;;;13.60;;
5225;SDS011;2632;51.666;7.146;2023-05-07T01:04:26;20.90;;;12.97;;
5225;SDS011;2632;51.666;7.146;2023-05-07T01:06:56;20.07;;;13.83;;
5225;SDS011;2632;51.666;7.146;2023-05-07T01:09:25;21.33;;;13.23;;
5225;SDS011;2632;51.666;7.146;2023-05-07T01:11:53;18.70;;;13.30;;
5225;SDS011;2632;51.666;7.146;2023-05-07T01:14:22;20.67;;;13.37;;
5225;SDS011;2632;51.666;7.146;2023-05-07T01:16:48;19.30;;;13.80;;
5225;SDS011;2632;51.666;7.146;2023-05-07T01:19:17;19.67;;;13.40;;
5225;SDS011;2632;51.666;7.146;2023-05-07T01:21:46;21.33;;;14.07;;
5225;SDS011;2632;51.666;7.146;2023-05-07T01:24:14;21.23;;;13.23;;
5225;SDS011;2632;51.666;7.146;2023-05-07T01:26:42;26.87;;;16.07;;
5225;SDS011;2632;51.666;7.146;2023-05-07T01:29:10;19.80;;;14.23;;
5225;SDS011;2632;51.666;7.146;2023-05-07T01:31:37;21.53;;;13.90;;
5225;SDS011;2632;51.666;7.146;2023-05-07T01:34:07;22.20;;;14.80;;
5225;SDS011;2632;51.666;7.146;2023-05-07T01:36:37;22.20;;;14.40;;
5225;SDS011;2632;51.666;7.146;2023-05-07T01:39:06;20.40;;;14.20;;
5225;SDS011;2632;51.666;7.146;2023-05-07T01:41:33;20.67;;;14.00;;
5225;SDS011;2632;51.666;7.146;2023-05-07T01:44:01;20.63;;;14.27;;
5225;SDS011;2632;51.666;7.146;2023-05-07T01:46:29;30.07;;;16.23;;
5225;SDS011;2632;51.666;7.146;2023-05-07T01:48:57;20.60;;;14.10;;
5225;SDS011;2632;51.666;7.146;2023-05-07T01:51:24;20.67;;;14.20;;
5225;SDS011;2632;51.666;7.146;2023-05-07T01:53:51;24.03;;;15.50;;
5225;SDS011;2632;51.666;7.146;2023-05-07T01:56:19;21.20;;;14.20;;
5225;SDS011;2632;51.666;7.146;2023-05-07T01:58:46;18.83;;;13.83;;
5225;SDS011;2632;51.666;7.146;2023-05-07T02:01:13;23.07;;;15.63;;
5225;SDS011;2632;51.666;7.146;2023-05-07T02:03:40;23.97;;;15.23;;
5225;SDS011;2632;51.666;7.146;2023-05-07T02:06:08;23.80;;;14.20;;
5225;SDS011;2632;51.666;7.146;2023-05-07T02:08:34;19.87;;;13.40;;
5225;SDS011;2632;51.666;7.146;2023-05-07T02:11:01;21.70;;;14.53;;
5225;SDS011;2632;51.666;7.146;2023-05-07T02:13:29;21.53;;;15.17;;
5225;SDS011;2632;51.666;7.146;2023-05-07T02:15:56;24.60;;;13.33;;
5225;SDS011;2632;51.666;7.146;2023-05-07T02:18:23;19.10;;;13.63;;
5225;SDS011;2632;51.666;7.146;2023-05-07T02:20:50;22.50;;;14.00;;
5225;SDS011;2632;51.666;7.146;2023-05-07T02:23:16;21.10;;;14.47;;
5225;SDS011;2632;51.666;7.146;2023-05-07T02:25:43;22.10;;;14.17;;
5225;SDS011;2632;51.666;7.146;2023-05-07T02:28:10;21.67;;;13.97;;
5225;SDS011;2632;51.666;7.146;2023-05-07T02:30:38;19.93;;;13.70;;
5225;SDS011;2632;51.666;7.146;2023-05-07T02:33:05;19.13;;;14.40;;
5225;SDS011;2632;51.666;7.146;2023-05-07T02:35:32;19.07;;;13.73;;
5225;SDS011;2632;51.666;7.146;2023-05-07T02:37:59;20.73;;;13.73;;
5225;SDS011;2632;51.666;7.146;2023-05-07T02:40:25;20.00;;;14.17;;
5225;SDS011;2632;51.666;7.146;2023-05-07T02:42:52;20.17;;;13.93;;
5225;SDS011;2632;51.666;7.146;2023-05-07T02:45:18;19.53;;;13.80;;
5225;SDS011;2632;51.666;7.146;2023-05-07T02:47:45;20.60;;;13.60;;
5225;SDS011;2632;51.666;7.146;2023-05-07T02:50:12;20.80;;;14.60;;
5225;SDS011;2632;51.666;7.146;2023-05-07T02:52:39;21.63;;;14.47;;
5225;SDS011;2632;51.666;7.146;2023-05-07T02:55:06;18.87;;;13.57;;
5225;SDS011;2632;51.666;7.146;2023-05-07T02:57:33;22.60;;;14.30;;
5225;SDS011;2632;51.666;7.146;2023-05-07T02:59:59;18.63;;;13.60;;
5225;SDS011;2632;51.666;7.146;2023-05-07T03:02:36;21.60;;;13.30;;
5225;SDS011;2632;51.666;7.146;2023-05-07T03:05:02;21.20;;;13.50;;
5225;SDS011;2632;51.666;7.146;2023-05-07T03:07:29;22.07;;;14.60;;
5225;SDS011;2632;51.666;7.146;2023-05-07T03:09:56;19.90;;;13.90;;
5225;SDS011;2632;51.666;7.146;2023-05-07T03:12:22;19.17;;;14.07;;
5225;SDS011;2632;51.666;7.146;2023-05-07T03:14:49;20.93;;;14.20;;
5225;SDS011;2632;51.666;7.146;2023-05-07T03:17:16;23.73;;;14.80;;
5225;SDS011;2632;51.666;7.146;2023-05-07T03:19:43;20.00;;;13.60;;
5225;SDS011;2632;51.666;7.146;2023-05-07T03:22:09;19.97;;;13.47;;
5225;SDS011;2632;51.666;7.146;2023-05-07T03:24:36;20.00;;;13.90;;
5225;SDS011;2632;51.666;7.146;2023-05-07T03:27:03;19.47;;;13.50;;
5225;SDS011;2632;51.666;7.146;2023-05-07T03:29:30;24.00;;;15.20;;
5225;SDS011;2632;51.666;7.146;2023-05-07T03:31:56;21.50;;;14.23;;
5225;SDS011;2632;51.666;7.146;2023-05-07T03:34:23;17.40;;;13.73;;
5225;SDS011;2632;51.666;7.146;2023-05-07T03:36:49;20.00;;;12.83;;
5225;SDS011;2632;51.666;7.146;2023-05-07T03:39:16;21.47;;;13.60;;
5225;SDS011;2632;51.666;7.146;2023-05-07T03:41:43;18.73;;;13.40;;
5225;SDS011;2632;51.666;7.146;2023-05-07T03:44:09;21.33;;;14.00;;
5225;SDS011;2632;51.666;7.146;2023-05-07T03:46:36;20.03;;;13.70;;
5225;SDS011;2632;51.666;7.146;2023-05-07T03:49:03;21.40;;;13.73;;
5225;SDS011;2632;51.666;7.146;2023-05-07T03:51:29;19.33;;;13.00;;
5225;SDS011;2632;51.666;7.146;2023-05-07T03:53:56;20.50;;;13.97;;
5225;SDS011;2632;51.666;7.146;2023-05-07T03:56:23;19.40;;;12.87;;
5225;SDS011;2632;51.666;7.146;2023-05-07T03:58:52;24.67;;;14.77;;
5225;SDS011;2632;51.666;7.146;2023-05-07T04:01:19;19.47;;;12.83;;
5225;SDS011;2632;51.666;7.146;2023-05-07T04:03:45;21.60;;;13.70;;
5225;SDS011;2632;51.666;7.146;2023-05-07T04:06:12;20.93;;;13.60;;
5225;SDS011;2632;51.666;7.146;2023-05-07T04:08:39;19.77;;;14.17;;
5225;SDS011;2632;51.666;7.146;2023-05-07T04:11:05;23.77;;;14.00;;
5225;SDS011;2632;51.666;7.146;2023-05-07T04:13:32;20.80;;;13.20;;
5225;SDS011;2632;51.666;7.146;2023-05-07T04:16:00;20.77;;;13.80;;
5225;SDS011;2632;51.666;7.146;2023-05-07T04:18:28;19.77;;;13.13;;
5225;SDS011;2632;51.666;7.146;2023-05-07T04:20:55;21.90;;;14.67;;
5225;SDS011;2632;51.666;7.146;2023-05-07T04:23:21;20.40;;;14.43;;
5225;SDS011;2632;51.666;7.146;2023-05-07T04:25:48;21.23;;;13.60;;
5225;SDS011;2632;51.666;7.146;2023-05-07T04:28:14;20.83;;;13.87;;
5225;SDS011;2632;51.666;7.146;2023-05-07T04:30:41;22.37;;;13.97;;
5225;SDS011;2632;51.666;7.146;2023-05-07T04:33:08;22.40;;;14.73;;
5225;SDS011;2632;51.666;7.146;2023-05-07T04:35:35;21.40;;;14.57;;
5225;SDS011;2632;51.666;7.146;2023-05-07T04:38:01;21.40;;;13.40;;
5225;SDS011;2632;51.666;7.146;2023-05-07T04:40:28;20.10;;;13.07;;
5225;SDS011;2632;51.666;7.146;2023-05-07T04:42:54;19.77;;;12.50;;
5225;SDS011;2632;51.666;7.146;2023-05-07T04:45:21;21.37;;;13.50;;
5225;SDS011;2632;51.666;7.146;2023-05-07T04:47:48;20.47;;;13.37;;
5225;SDS011;2632;51.666;7.146;2023-05-07T04:50:14;20.63;;;12.27;;
5225;SDS011;2632;51.666;7.146;2023-05-07T04:52:41;18.17;;;11.90;;
5225;SDS011;2632;51.666;7.146;2023-05-07T04:55:08;20.90;;;12.90;;
5225;SDS011;2632;51.666;7.146;2023-05-07T04:57:34;17.10;;;11.57;;
5225;SDS011;2632;51.666;7.146;2023-05-07T05:00:01;18.10;;;12.37;;
5225;SDS011;2632;51.666;7.146;2023-05-07T05:02:30;19.20;;;11.90;;
5225;SDS011;2632;51.666;7.146;2023-05-07T05:04:56;18.50;;;11.90;;
5225;SDS011;2632;51.666;7.146;2023-05-07T05:07:23;15.47;;;11.40;;
5225;SDS011;2632;51.666;7.146;2023-05-07T05:09:50;18.97;;;11.90;;
5225;SDS011;2632;51.666;7.146;2023-05-07T05:12:16;16.60;;;11.23;;
5225;SDS011;2632;51.666;7.146;2023-05-07T05:14:43;18.60;;;11.90;;
5225;SDS011;2632;51.666;7.146;2023-05-07T05:17:09;15.63;;;11.57;;
5225;SDS011;2632;51.666;7.146;2023-05-07T05:19:36;15.03;;;10.87;;
5225;SDS011;2632;51.666;7.146;2023-05-07T05:22:02;17.10;;;11.17;;
5225;SDS011;2632;51.666;7.146;2023-05-07T05:24:30;15.40;;;11.30;;
5225;SDS011;2632;51.666;7.146;2023-05-07T05:26:57;17.53;;;10.77;;
5225;SDS011;2632;51.666;7.146;2023-05-07T05:29:25;12.20;;;9.43;;
5225;SDS011;2632;51.666;7.146;2023-05-07T05:31:52;15.93;;;10.43;;
5225;SDS011;2632;51.666;7.146;2023-05-07T05:34:19;16.40;;;10.50;;
5225;SDS011;2632;51.666;7.146;2023-05-07T05:36:45;18.80;;;9.80;;
5225;SDS011;2632;51.666;7.146;2023-05-07T05:39:12;14.47;;;10.70;;
5225;SDS011;2632;51.666;7.146;2023-05-07T05:41:38;16.03;;;11.10;;
5225;SDS011;2632;51.666;7.146;2023-05-07T05:44:05;15.20;;;10.17;;
5225;SDS011;2632;51.666;7.146;2023-05-07T05:46:32;16.13;;;9.90;;
5225;SDS011;2632;51.666;7.146;2023-05-07T05:49:02;15.47;;;9.80;;
5225;SDS011;2632;51.666;7.146;2023-05-07T05:51:28;14.30;;;10.00;;
5225;SDS011;2632;51.666;7.146;2023-05-07T05:53:55;16.30;;;10.60;;
5225;SDS011;2632;51.666;7.146;2023-05-07T05:56:21;13.60;;;9.97;;
5225;SDS011;2632;51.666;7.146;2023-05-07T05:58:48;15.57;;;10.00;;
5225;SDS011;2632;51.666;7.146;2023-05-07T06:01:15;13.80;;;10.10;;
5225;SDS011;2632;51.666;7.146;2023-05-07T06:03:42;17.03;;;9.57;;
5225;SDS011;2632;51.666;7.146;2023-05-07T06:06:09;14.93;;;10.23;;
5225;SDS011;2632;51.666;7.146;2023-05-07T06:08:36;13.93;;;9.73;;
5225;SDS011;2632;51.666;7.146;2023-05-07T06:11:02;16.33;;;10.30;;
5225;SDS011;2632;51.666;7.146;2023-05-07T06:13:29;14.47;;;9.47;;
5225;SDS011;2632;51.666;7.146;2023-05-07T06:15:56;13.90;;;9.37;;
5225;SDS011;2632;51.666;7.146;2023-05-07T06:18:22;18.83;;;9.23;;
5225;SDS011;2632;51.666;7.146;2023-05-07T06:20:49;14.30;;;9.37;;
5225;SDS011;2632;51.666;7.146;2023-05-07T06:23:16;15.20;;;9.93;;
5225;SDS011;2632;51.666;7.146;2023-05-07T06:25:47;15.80;;;9.10;;
5225;SDS011;2632;51.666;7.146;2023-05-07T06:28:14;11.23;;;8.80;;
5225;SDS011;2632;51.666;7.146;2023-05-07T06:30:41;13.40;;;8.60;;
5225;SDS011;2632;51.666;7.146;2023-05-07T06:33:08;14.30;;;9.03;;
5225;SDS011;2632;51.666;7.146;2023-05-07T06:35:34;12.83;;;8.80;;
5225;SDS011;2632;51.666;7.146;2023-05-07T06:38:01;13.73;;;9.47;;
5225;SDS011;2632;51.666;7.146;2023-05-07T06:40:28;14.23;;;9.80;;
5225;SDS011;2632;51.666;7.146;2023-05-07T06:42:54;11.87;;;8.30;;
5225;SDS011;2632;51.666;7.146;2023-05-07T06:45:21;13.33;;;8.47;;
5225;SDS011;2632;51.666;7.146;2023-05-07T06:47:48;13.10;;;8.90;;
5225;SDS011;2632;51.666;7.146;2023-05-07T06:50:14;11.90;;;8.83;;
5225;SDS011;2632;51.666;7.146;2023-05-07T06:52:43;12.50;;;8.97;;
5225;SDS011;2632;51.666;7.146;2023-05-07T06:55:09;11.97;;;8.97;;
5225;SDS011;2632;51.666;7.146;2023-05-07T06:57:37;13.07;;;9.20;;
5225;SDS011;2632;51.666;7.146;2023-05-07T07:00:05;11.83;;;8.87;;
5225;SDS011;2632;51.666;7.146;2023-05-07T07:02:36;15.83;;;9.27;;
5225;SDS011;2632;51.666;7.146;2023-05-07T07:05:02;13.10;;;9.00;;
5225;SDS011;2632;51.666;7.146;2023-05-07T07:07:29;13.87;;;9.03;;
5225;SDS011;2632;51.666;7.146;2023-05-07T07:09:56;18.37;;;9.63;;
5225;SDS011;2632;51.666;7.146;2023-05-07T07:12:23;13.60;;;10.23;;
5225;SDS011;2632;51.666;7.146;2023-05-07T07:14:50;13.70;;;9.30;;
5225;SDS011;2632;51.666;7.146;2023-05-07T07:17:17;13.30;;;9.00;;
5225;SDS011;2632;51.666;7.146;2023-05-07T07:19:44;15.00;;;9.43;;
5225;SDS011;2632;51.666;7.146;2023-05-07T07:22:10;12.80;;;8.90;;
5225;SDS011;2632;51.666;7.146;2023-05-07T07:24:37;13.27;;;9.20;;
5225;SDS011;2632;51.666;7.146;2023-05-07T07:27:04;15.13;;;9.80;;
5225;SDS011;2632;51.666;7.146;2023-05-07T07:29:30;11.90;;;8.43;;
5225;SDS011;2632;51.666;7.146;2023-05-07T07:31:57;13.20;;;9.00;;
5225;SDS011;2632;51.666;7.146;2023-05-07T07:34:24;14.50;;;9.20;;
5225;SDS011;2632;51.666;7.146;2023-05-07T07:36:50;13.87;;;9.43;;
5225;SDS011;2632;51.666;7.146;2023-05-07T07:39:17;15.03;;;9.93;;
5225;SDS011;2632;51.666;7.146;2023-05-07T07:41:44;15.87;;;10.33;;
5225;SDS011;2632;51.666;7.146;2023-05-07T07:44:10;16.20;;;9.60;;
5225;SDS011;2632;51.666;7.146;2023-05-07T07:46:41;14.73;;;9.63;;
5225;SDS011;2632;51.666;7.146;2023-05-07T07:49:08;14.27;;;9.30;;
5225;SDS011;2632;51.666;7.146;2023-05-07T07:51:34;13.13;;;9.50;;
5225;SDS011;2632;51.666;7.146;2023-05-07T07:54:01;16.70;;;9.50;;
5225;SDS011;2632;51.666;7.146;2023-05-07T07:56:28;17.70;;;10.53;;
5225;SDS011;2632;51.666;7.146;2023-05-07T07:58:55;15.23;;;10.30;;
5225;SDS011;2632;51.666;7.146;2023-05-07T08:01:22;13.07;;;9.37;;
5225;SDS011;2632;51.666;7.146;2023-05-07T08:03:48;12.77;;;9.30;;
5225;SDS011;2632;51.666;7.146;2023-05-07T08:06:15;16.37;;;10.63;;
5225;SDS011;2632;51.666;7.146;2023-05-07T08:08:42;12.40;;;9.40;;
5225;SDS011;2632;51.666;7.146;2023-05-07T08:11:09;15.00;;;9.20;;
5225;SDS011;2632;51.666;7.146;2023-05-07T08:13:36;12.63;;;9.00;;
5225;SDS011;2632;51.666;7.146;2023-05-07T08:16:04;14.60;;;9.13;;
5225;SDS011;2632;51.666;7.146;2023-05-07T08:18:30;14.93;;;9.10;;
5225;SDS011;2632;51.666;7.146;2023-05-07T08:20:57;14.27;;;8.97;;
5225;SDS011;2632;51.666;7.146;2023-05-07T08:23:24;12.20;;;9.33;;
5225;SDS011;2632;51.666;7.146;2023-05-07T08:25:50;14.30;;;9.53;;
5225;SDS011;2632;51.666;7.146;2023-05-07T08:28:18;14.77;;;9.83;;
5225;SDS011;2632;51.666;7.146;2023-05-07T08:30:45;15.80;;;10.43;;
5225;SDS011;2632;51.666;7.146;2023-05-07T08:33:12;14.23;;;8.90;;
5225;SDS011;2632;51.666;7.146;2023-05-07T08:35:39;12.20;;;8.77;;
5225;SDS011;2632;51.666;7.146;2023-05-07T08:38:06;15.93;;;9.97;;
5225;SDS011;2632;51.666;7.146;2023-05-07T08:40:38;13.70;;;10.10;;
5225;SDS011;2632;51.666;7.146;2023-05-07T08:43:07;13.80;;;9.10;;
5225;SDS011;2632;51.666;7.146;2023-05-07T08:45:34;16.07;;;9.23;;
5225;SDS011;2632;51.666;7.146;2023-05-07T08:48:02;12.40;;;9.07;;
5225;SDS011;2632;51.666;7.146;2023-05-07T08:50:31;11.63;;;8.90;;
5225;SDS011;2632;51.666;7.146;2023-05-07T08:53:02;11.87;;;8.57;;
5225;SDS011;2632;51.666;7.146;2023-05-07T08:55:30;12.60;;;8.80;;
5225;SDS011;2632;51.666;7.146;2023-05-07T08:57:57;15.27;;;9.60;;
5225;SDS011;2632;51.666;7.146;2023-05-07T09:00:24;15.10;;;10.10;;
5225;SDS011;2632;51.666;7.146;2023-05-07T09:02:51;12.50;;;9.33;;
5225;SDS011;2632;51.666;7.146;2023-05-07T09:05:19;13.53;;;9.60;;
5225;SDS011;2632;51.666;7.146;2023-05-07T09:07:46;14.23;;;10.10;;
5225;SDS011;2632;51.666;7.146;2023-05-07T09:10:13;31.10;;;10.70;;
5225;SDS011;2632;51.666;7.146;2023-05-07T09:12:40;14.83;;;10.20;;
5225;SDS011;2632;51.666;7.146;2023-05-07T09:15:07;13.30;;;9.50;;
5225;SDS011;2632;51.666;7.146;2023-05-07T09:17:34;15.57;;;9.03;;
5225;SDS011;2632;51.666;7.146;2023-05-07T09:20:02;16.47;;;10.37;;
5225;SDS011;2632;51.666;7.146;2023-05-07T09:22:36;13.60;;;9.63;;
5225;SDS011;2632;51.666;7.146;2023-05-07T09:25:04;15.70;;;9.60;;
5225;SDS011;2632;51.666;7.146;2023-05-07T09:27:34;16.37;;;10.33;;
5225;SDS011;2632;51.666;7.146;2023-05-07T09:30:05;16.07;;;10.20;;
5225;SDS011;2632;51.666;7.146;2023-05-07T09:32:35;14.00;;;9.73;;
5225;SDS011;2632;51.666;7.146;2023-05-07T09:35:06;13.13;;;10.13;;
5225;SDS011;2632;51.666;7.146;2023-05-07T09:37:42;14.80;;;9.43;;
5225;SDS011;2632;51.666;7.146;2023-05-07T09:40:19;12.63;;;9.50;;
5225;SDS011;2632;51.666;7.146;2023-05-07T09:42:50;12.00;;;8.90;;
5225;SDS011;2632;51.666;7.146;2023-05-07T09:45:26;13.53;;;9.10;;
5225;SDS011;2632;51.666;7.146;2023-05-07T09:47:54;11.60;;;8.10;;
5225;SDS011;2632;51.666;7.146;2023-05-07T09:50:25;13.53;;;8.57;;
5225;SDS011;2632;51.666;7.146;2023-05-07T09:52:58;13.00;;;8.90;;
5225;SDS011;2632;51.666;7.146;2023-05-07T09:55:25;11.63;;;8.50;;
5225;SDS011;2632;51.666;7.146;2023-05-07T09:57:52;15.20;;;9.60;;
5225;SDS011;2632;51.666;7.146;2023-05-07T10:00:20;13.17;;;10.60;;
5225;SDS011;2632;51.666;7.146;2023-05-07T10:02:48;14.43;;;10.07;;
5225;SDS011;2632;51.666;7.146;2023-05-07T10:05:19;12.53;;;8.47;;
5225;SDS011;2632;51.666;7.146;2023-05-07T10:07:48;10.40;;;7.60;;
5225;SDS011;2632;51.666;7.146;2023-05-07T10:10:17;10.00;;;7.67;;
5225;SDS011;2632;51.666;7.146;2023-05-07T10:12:44;13.20;;;9.40;;
5225;SDS011;2632;51.666;7.146;2023-05-07T10:15:11;9.90;;;7.30;;
5225;SDS011;2632;51.666;7.146;2023-05-07T10:17:40;14.43;;;7.40;;
5225;SDS011;2632;51.666;7.146;2023-05-07T10:20:07;8.90;;;7.70;;
5225;SDS011;2632;51.666;7.146;2023-05-07T10:22:38;8.10;;;6.67;;
5225;SDS011;2632;51.666;7.146;2023-05-07T10:25:13;8.37;;;6.47;;
5225;SDS011;2632;51.666;7.146;2023-05-07T10:27:43;9.83;;;7.30;;
5225;SDS011;2632;51.666;7.146;2023-05-07T10:32:56;13.13;;;7.63;;
5225;SDS011;2632;51.666;7.146;2023-05-07T10:35:32;11.50;;;7.87;;
5225;SDS011;2632;51.666;7.146;2023-05-07T10:38:05;6.67;;;5.90;;
5225;SDS011;2632;51.666;7.146;2023-05-07T10:40:31;9.60;;;8.03;;
5225;SDS011;2632;51.666;7.146;2023-05-07T10:42:59;11.93;;;7.20;;
5225;SDS011;2632;51.666;7.146;2023-05-07T10:45:27;7.10;;;5.03;;
5225;SDS011;2632;51.666;7.146;2023-05-07T10:48:13;5.53;;;4.97;;
5225;SDS011;2632;51.666;7.146;2023-05-07T10:50:44;6.17;;;4.97;;
5225;SDS011;2632;51.666;7.146;2023-05-07T10:55:47;6.40;;;5.70;;
5225;SDS011;2632;51.666;7.146;2023-05-07T11:00:58;7.27;;;5.00;;
5225;SDS011;2632;51.666;7.146;2023-05-07T11:03:26;6.63;;;4.03;;
5225;SDS011;2632;51.666;7.146;2023-05-07T11:06:12;9.45;;;5.00;;
5225;SDS011;2632;51.666;7.146;2023-05-07T11:11:43;6.80;;;5.20;;
5225;SDS011;2632;51.666;7.146;2023-05-07T11:14:59;8.40;;;6.10;;
5225;SDS011;2632;51.666;7.146;2023-05-07T11:17:09;6.03;;;4.63;;
5225;SDS011;2632;51.666;7.146;2023-05-07T11:19:49;5.30;;;4.80;;
5225;SDS011;2632;51.666;7.146;2023-05-07T11:25:07;6.40;;;5.28;;
5225;SDS011;2632;51.666;7.146;2023-05-07T11:27:34;6.30;;;5.57;;
5225;SDS011;2632;51.666;7.146;2023-05-07T11:30:01;7.60;;;6.18;;
5225;SDS011;2632;51.666;7.146;2023-05-07T11:32:28;4.82;;;4.32;;
5225;SDS011;2632;51.666;7.146;2023-05-07T11:34:57;5.40;;;4.80;;
5225;SDS011;2632;51.666;7.146;2023-05-07T11:37:25;7.45;;;6.43;;
5225;SDS011;2632;51.666;7.146;2023-05-07T11:40:04;5.93;;;5.35;;
5225;SDS011;2632;51.666;7.146;2023-05-07T11:42:33;6.28;;;5.68;;
5225;SDS011;2632;51.666;7.146;2023-05-07T11:45:03;6.88;;;5.28;;
5225;SDS011;2632;51.666;7.146;2023-05-07T11:47:32;6.40;;;5.80;;
5225;SDS011;2632;51.666;7.146;2023-05-07T11:50:06;6.18;;;5.32;;
5225;SDS011;2632;51.666;7.146;2023-05-07T11:52:34;7.97;;;7.10;;
5225;SDS011;2632;51.666;7.146;2023-05-07T11:55:02;7.68;;;5.80;;
5225;SDS011;2632;51.666;7.146;2023-05-07T11:57:32;7.72;;;6.97;;
5225;SDS011;2632;51.666;7.146;2023-05-07T12:00:00;9.88;;;7.38;;
5225;SDS011;2632;51.666;7.146;2023-05-07T12:02:29;8.75;;;7.85;;
5225;SDS011;2632;51.666;7.146;2023-05-07T12:04:57;9.20;;;6.68;;
5225;SDS011;2632;51.666;7.146;2023-05-07T12:07:26;7.47;;;5.40;;
5225;SDS011;2632;51.666;7.146;2023-05-07T12:09:53;9.52;;;8.18;;
5225;SDS011;2632;51.666;7.146;2023-05-07T12:12:19;9.70;;;7.32;;
5225;SDS011;2632;51.666;7.146;2023-05-07T12:14:46;10.77;;;8.00;;
5225;SDS011;2632;51.666;7.146;2023-05-07T12:17:13;9.63;;;6.95;;
5225;SDS011;2632;51.666;7.146;2023-05-07T12:19:41;11.13;;;7.68;;
5225;SDS011;2632;51.666;7.146;2023-05-07T12:22:10;9.20;;;6.43;;
5225;SDS011;2632;51.666;7.146;2023-05-07T12:24:47;8.15;;;5.97;;
5225;SDS011;2632;51.666;7.146;2023-05-07T12:27:15;8.93;;;7.15;;
5225;SDS011;2632;51.666;7.146;2023-05-07T12:29:49;9.27;;;7.22;;
5225;SDS011;2632;51.666;7.146;2023-05-07T12:32:16;10.82;;;6.88;;
5225;SDS011;2632;51.666;7.146;2023-05-07T12:34:45;8.70;;;6.57;;
5225;SDS011;2632;51.666;7.146;2023-05-07T12:37:12;10.57;;;8.00;;
5225;SDS011;2632;51.666;7.146;2023-05-07T12:39:48;8.13;;;6.27;;
5225;SDS011;2632;51.666;7.146;2023-05-07T12:42:16;8.70;;;6.90;;
5225;SDS011;2632;51.666;7.146;2023-05-07T12:44:46;9.37;;;7.17;;
5225;SDS011;2632;51.666;7.146;2023-05-07T12:47:13;9.33;;;7.20;;
5225;SDS011;2632;51.666;7.146;2023-05-07T12:49:41;10.97;;;8.03;;
5225;SDS011;2632;51.666;7.146;2023-05-07T12:52:08;9.93;;;7.40;;
5225;SDS011;2632;51.666;7.146;2023-05-07T12:54:36;7.13;;;6.43;;
5225;SDS011;2632;51.666;7.146;2023-05-07T12:57:04;7.60;;;6.13;;
5225;SDS011;2632;51.666;7.146;2023-05-07T12:59:36;9.43;;;6.80;;
5225;SDS011;2632;51.666;7.146;2023-05-07T13:02:06;9.57;;;6.43;;
5225;SDS011;2632;51.666;7.146;2023-05-07T13:04:33;9.37;;;6.60;;
5225;SDS011;2632;51.666;7.146;2023-05-07T13:07:01;8.23;;;6.33;;
5225;SDS011;2632;51.666;7.146;2023-05-07T13:09:28;7.77;;;6.23;;
5225;SDS011;2632;51.666;7.146;2023-05-07T13:11:55;8.10;;;5.97;;
5225;SDS011;2632;51.666;7.146;2023-05-07T13:14:22;10.37;;;5.83;;
5225;SDS011;2632;51.666;7.146;2023-05-07T13:16:48;6.10;;;5.30;;
5225;SDS011;2632;51.666;7.146;2023-05-07T13:19:15;9.80;;;6.43;;
5225;SDS011;2632;51.666;7.146;2023-05-07T13:21:42;9.97;;;7.10;;
5225;SDS011;2632;51.666;7.146;2023-05-07T13:24:08;10.13;;;7.00;;
5225;SDS011;2632;51.666;7.146;2023-05-07T13:26:35;7.83;;;5.97;;
5225;SDS011;2632;51.666;7.146;2023-05-07T13:29:02;9.73;;;6.40;;
5225;SDS011;2632;51.666;7.146;2023-05-07T13:31:32;8.00;;;6.07;;
5225;SDS011;2632;51.666;7.146;2023-05-07T13:34:01;8.77;;;6.03;;
5225;SDS011;2632;51.666;7.146;2023-05-07T13:36:28;11.03;;;6.50;;
5225;SDS011;2632;51.666;7.146;2023-05-07T13:38:54;11.80;;;6.63;;
5225;SDS011;2632;51.666;7.146;2023-05-07T13:41:21;8.90;;;5.97;;
5225;SDS011;2632;51.666;7.146;2023-05-07T13:43:48;9.60;;;6.00;;
5225;SDS011;2632;51.666;7.146;2023-05-07T13:46:15;6.27;;;5.30;;
5225;SDS011;2632;51.666;7.146;2023-05-07T13:48:42;12.73;;;6.67;;
5225;SDS011;2632;51.666;7.146;2023-05-07T13:51:08;7.57;;;5.67;;
5225;SDS011;2632;51.666;7.146;2023-05-07T13:53:35;6.80;;;5.27;;
5225;SDS011;2632;51.666;7.146;2023-05-07T13:56:02;8.73;;;5.43;;
5225;SDS011;2632;51.666;7.146;2023-05-07T13:58:30;8.83;;;5.57;;
5225;SDS011;2632;51.666;7.146;2023-05-07T14:00:57;8.70;;;6.03;;
5225;SDS011;2632;51.666;7.146;2023-05-07T14:03:23;7.30;;;6.10;;
5225;SDS011;2632;51.666;7.146;2023-05-07T14:05:50;7.30;;;5.90;;
5225;SDS011;2632;51.666;7.146;2023-05-07T14:08:17;11.90;;;6.73;;
5225;SDS011;2632;51.666;7.146;2023-05-07T14:10:45;8.90;;;6.30;;
5225;SDS011;2632;51.666;7.146;2023-05-07T14:13:12;11.80;;;6.80;;
5225;SDS011;2632;51.666;7.146;2023-05-07T14:15:39;10.33;;;7.20;;
5225;SDS011;2632;51.666;7.146;2023-05-07T14:18:06;12.60;;;7.57;;
5225;SDS011;2632;51.666;7.146;2023-05-07T14:20:33;11.23;;;7.20;;
5225;SDS011;2632;51.666;7.146;2023-05-07T14:23:02;11.37;;;7.10;;
5225;SDS011;2632;51.666;7.146;2023-05-07T14:25:29;10.50;;;7.40;;
5225;SDS011;2632;51.666;7.146;2023-05-07T14:27:55;10.33;;;7.53;;
5225;SDS011;2632;51.666;7.146;2023-05-07T14:30:22;10.80;;;6.23;;
5225;SDS011;2632;51.666;7.146;2023-05-07T14:32:50;10.03;;;6.53;;
5225;SDS011;2632;51.666;7.146;2023-05-07T14:35:17;13.13;;;8.13;;
5225;SDS011;2632;51.666;7.146;2023-05-07T14:37:43;10.27;;;7.07;;
5225;SDS011;2632;51.666;7.146;2023-05-07T14:40:10;9.10;;;7.10;;
5225;SDS011;2632;51.666;7.146;2023-05-07T14:42:37;9.90;;;7.13;;
5225;SDS011;2632;51.666;7.146;2023-05-07T14:45:04;10.77;;;7.50;;
5225;SDS011;2632;51.666;7.146;2023-05-07T14:47:31;10.27;;;7.20;;
5225;SDS011;2632;51.666;7.146;2023-05-07T14:49:58;11.20;;;7.70;;
5225;SDS011;2632;51.666;7.146;2023-05-07T14:52:27;12.17;;;7.83;;
5225;SDS011;2632;51.666;7.146;2023-05-07T14:54:53;9.03;;;6.70;;
5225;SDS011;2632;51.666;7.146;2023-05-07T14:57:20;15.20;;;8.50;;
5225;SDS011;2632;51.666;7.146;2023-05-07T14:59:46;10.90;;;6.63;;
5225;SDS011;2632;51.666;7.146;2023-05-07T15:02:13;11.00;;;7.23;;
5225;SDS011;2632;51.666;7.146;2023-05-07T15:04:41;10.63;;;7.93;;
5225;SDS011;2632;51.666;7.146;2023-05-07T15:07:15;10.57;;;8.03;;
5225;SDS011;2632;51.666;7.146;2023-05-07T15:09:42;10.63;;;7.40;;
5225;SDS011;2632;51.666;7.146;2023-05-07T15:12:09;9.80;;;6.90;;
5225;SDS011;2632;51.666;7.146;2023-05-07T15:14:40;11.90;;;7.40;;